createdAt,value
2018-11-06T00:00:49.304Z,12.90
2018-11-06T00:03:16.758Z,12.53
2018-11-06T00:05:44.220Z,12.70
2018-11-06T00:08:11.676Z,11.07
2018-11-06T00:10:39.235Z,11.87
2018-11-06T00:13:06.800Z,12.97
2018-11-06T00:15:34.261Z,11.60
2018-11-06T00:18:01.733Z,12.10
2018-11-06T00:20:29.196Z,12.10
2018-11-06T00:22:56.655Z,12.17
2018-11-06T00:25:24.117Z,12.50
2018-11-06T00:27:52.366Z,12.53
2018-11-06T00:30:19.849Z,11.53
2018-11-06T00:32:47.414Z,11.73
2018-11-06T00:35:14.970Z,11.40
2018-11-06T00:37:42.448Z,13.10
2018-11-06T00:40:09.918Z,10.20
2018-11-06T00:42:37.391Z,11.90
2018-11-06T00:45:05.653Z,12.73
2018-11-06T00:47:33.209Z,11.30
2018-11-06T00:50:00.768Z,12.00
2018-11-06T00:52:28.338Z,11.20
2018-11-06T00:54:55.901Z,11.60
2018-11-06T00:57:23.459Z,11.73
2018-11-06T00:59:51.739Z,11.67
2018-11-06T01:02:20.032Z,12.57
2018-11-06T01:04:48.307Z,11.63
2018-11-06T01:07:15.816Z,11.83
2018-11-06T01:09:43.242Z,11.70
2018-11-06T01:12:11.464Z,11.10
2018-11-06T01:14:38.931Z,11.53
2018-11-06T01:17:06.400Z,12.10
2018-11-06T01:19:34.016Z,11.10
2018-11-06T01:22:01.470Z,11.93
2018-11-06T01:24:29.691Z,12.53
2018-11-06T01:26:57.160Z,11.57
2018-11-06T01:29:24.626Z,12.27
2018-11-06T01:31:52.127Z,11.50
2018-11-06T01:34:19.688Z,11.80
2018-11-06T01:36:47.157Z,11.90
2018-11-06T01:39:14.615Z,12.70
2018-11-06T01:41:42.094Z,12.03
2018-11-06T01:44:09.644Z,11.83
2018-11-06T01:46:37.097Z,12.27
2018-11-06T01:49:04.672Z,12.40
2018-11-06T01:51:32.227Z,11.67
2018-11-06T01:53:59.691Z,11.10
2018-11-06T01:56:27.168Z,10.90
2018-11-06T01:58:54.706Z,11.17
2018-11-06T02:01:22.180Z,11.77
2018-11-06T02:03:49.743Z,11.10
2018-11-06T02:06:17.310Z,12.37
2018-11-06T02:08:44.874Z,12.30
2018-11-06T02:11:12.437Z,11.53
2018-11-06T02:13:40.005Z,10.87
2018-11-06T02:16:08.259Z,11.47
2018-11-06T02:18:35.740Z,12.00
2018-11-06T02:21:04.735Z,11.20
2018-11-06T02:23:32.230Z,11.43
2018-11-06T02:26:00.452Z,11.60
2018-11-06T02:28:27.902Z,12.17
2018-11-06T02:30:55.381Z,12.93
2018-11-06T02:33:22.844Z,10.57
2018-11-06T02:35:50.305Z,12.13
2018-11-06T02:38:17.777Z,9.77
2018-11-06T02:40:45.252Z,10.73
2018-11-06T02:43:12.718Z,10.17
2018-11-06T02:45:40.174Z,11.07
2018-11-06T02:48:07.747Z,11.40
2018-11-06T02:50:35.216Z,11.50
2018-11-06T02:53:02.669Z,12.30
2018-11-06T02:55:30.231Z,10.87
2018-11-06T02:57:57.794Z,10.67
2018-11-06T03:00:25.261Z,10.40
2018-11-06T03:02:52.731Z,11.10
2018-11-06T03:05:22.167Z,10.53
2018-11-06T03:07:49.687Z,9.07
2018-11-06T03:10:17.262Z,11.12
2018-11-06T03:12:44.839Z,11.37
2018-11-06T03:15:12.302Z,12.73
2018-11-06T03:17:39.755Z,11.57
2018-11-06T03:20:07.976Z,11.23
2018-11-06T03:22:35.540Z,10.57
2018-11-06T03:25:04.454Z,9.80
2018-11-06T03:27:31.948Z,9.53
2018-11-06T03:29:59.508Z,11.97
2018-11-06T03:32:26.975Z,9.73
2018-11-06T03:34:55.207Z,10.93
2018-11-06T03:37:22.666Z,10.37
2018-11-06T03:39:50.129Z,12.13
2018-11-06T03:42:17.592Z,11.33
2018-11-06T03:44:45.056Z,10.03
2018-11-06T03:47:12.527Z,10.90
2018-11-06T03:49:39.981Z,11.70
2018-11-06T03:52:07.457Z,12.03
2018-11-06T03:54:34.905Z,10.63
2018-11-06T03:57:02.368Z,11.30
2018-11-06T03:59:29.835Z,11.63
2018-11-06T04:01:57.333Z,11.73
2018-11-06T04:04:24.895Z,12.00
2018-11-06T04:06:52.354Z,11.43
2018-11-06T04:09:19.811Z,9.67
2018-11-06T04:11:47.389Z,11.80
2018-11-06T04:14:14.952Z,8.03
2018-11-06T04:16:42.505Z,10.93
2018-11-06T04:19:09.961Z,12.47
2018-11-06T04:21:37.439Z,11.53
2018-11-06T04:24:05.002Z,10.57
2018-11-06T04:26:32.468Z,11.70
2018-11-06T04:28:59.930Z,10.13
2018-11-06T04:31:27.483Z,11.27
2018-11-06T04:33:55.061Z,11.70
2018-11-06T04:36:22.528Z,10.47
2018-11-06T04:38:50.791Z,11.00
2018-11-06T04:41:18.359Z,12.13
2018-11-06T04:43:45.827Z,12.07
2018-11-06T04:46:13.386Z,12.55
2018-11-06T04:48:40.951Z,9.23
2018-11-06T04:51:08.407Z,10.97
2018-11-06T04:53:36.631Z,11.27
2018-11-06T04:56:04.087Z,11.03
2018-11-06T04:58:32.424Z,8.50
2018-11-06T05:00:59.900Z,11.40
2018-11-06T05:03:27.451Z,11.53
2018-11-06T05:05:55.020Z,10.43
2018-11-06T05:08:22.473Z,11.17
2018-11-06T05:10:50.044Z,11.03
2018-11-06T05:13:17.495Z,10.47
2018-11-06T05:15:44.963Z,12.27
2018-11-06T05:18:12.537Z,10.30
2018-11-06T05:20:40.091Z,10.77
2018-11-06T05:23:07.667Z,10.73
2018-11-06T05:25:35.175Z,11.63
2018-11-06T05:28:03.766Z,11.27
2018-11-06T05:30:31.275Z,10.60
2018-11-06T05:32:58.905Z,10.77
2018-11-06T05:35:26.303Z,11.77
2018-11-06T05:37:53.763Z,11.33
2018-11-06T05:40:33.302Z,12.03
2018-11-06T05:43:00.857Z,11.10
2018-11-06T05:45:28.341Z,9.80
2018-11-06T05:47:55.812Z,11.47
2018-11-06T05:50:24.074Z,11.33
2018-11-06T05:52:51.533Z,10.87
2018-11-06T05:55:18.995Z,11.60
2018-11-06T05:57:46.553Z,10.43
2018-11-06T06:00:14.147Z,11.60
2018-11-06T06:02:41.592Z,10.80
2018-11-06T06:05:09.050Z,9.73
2018-11-06T06:07:36.520Z,10.87
2018-11-06T06:10:05.495Z,11.03
2018-11-06T06:12:32.949Z,10.90
2018-11-06T06:15:00.413Z,10.90
2018-11-06T06:17:27.987Z,11.80
2018-11-06T06:19:55.551Z,10.90
2018-11-06T06:22:23.030Z,10.47
2018-11-06T06:24:50.475Z,10.83
2018-11-06T06:27:18.051Z,10.87
2018-11-06T06:29:45.515Z,10.77
2018-11-06T06:32:12.982Z,10.57
2018-11-06T06:34:40.540Z,11.00
2018-11-06T06:37:08.707Z,10.73
2018-11-06T06:39:36.178Z,10.87
2018-11-06T06:42:04.746Z,11.27
2018-11-06T06:44:32.216Z,10.70
2018-11-06T06:46:59.669Z,11.40
2018-11-06T06:49:27.245Z,10.90
2018-11-06T06:51:54.699Z,10.47
2018-11-06T06:54:22.310Z,11.03
2018-11-06T06:56:49.670Z,11.23
2018-11-06T06:59:17.875Z,11.03
2018-11-06T07:01:45.354Z,10.90
2018-11-06T07:04:12.811Z,10.97
2018-11-06T07:06:40.291Z,10.80
2018-11-06T07:09:07.761Z,11.07
2018-11-06T07:11:35.328Z,10.70
2018-11-06T07:14:02.883Z,10.30
2018-11-06T07:16:30.452Z,10.27
2018-11-06T07:18:58.016Z,11.83
2018-11-06T07:21:25.579Z,11.33
2018-11-06T07:23:53.148Z,10.93
2018-11-06T07:26:20.746Z,11.07
2018-11-06T07:28:49.066Z,9.90
2018-11-06T07:31:16.455Z,11.43
2018-11-06T07:33:43.907Z,11.20
2018-11-06T07:36:11.378Z,10.50
2018-11-06T07:38:39.378Z,10.40
2018-11-06T07:41:06.961Z,10.37
2018-11-06T07:43:35.081Z,9.93
2018-11-06T07:46:02.527Z,10.50
2018-11-06T07:48:29.992Z,10.17
2018-11-06T07:50:57.471Z,9.87
2018-11-06T07:53:24.925Z,9.73
2018-11-06T07:55:52.485Z,10.57
2018-11-06T07:58:20.168Z,10.80
2018-11-06T08:00:47.620Z,10.40
2018-11-06T08:03:15.092Z,11.10
2018-11-06T08:05:42.652Z,10.63
2018-11-06T08:08:10.123Z,13.13
2018-11-06T08:10:37.594Z,11.00
2018-11-06T08:13:05.153Z,10.27
2018-11-06T08:15:32.614Z,10.27
2018-11-06T08:18:00.214Z,10.50
2018-11-06T08:20:28.407Z,9.87
2018-11-06T08:22:55.877Z,10.23
2018-11-06T08:25:23.379Z,10.47
2018-11-06T08:27:50.964Z,9.93
2018-11-06T08:30:19.922Z,11.13
2018-11-06T08:32:47.795Z,10.43
2018-11-06T08:35:14.866Z,10.33
2018-11-06T08:37:42.317Z,9.93
2018-11-06T08:40:09.781Z,10.00
2018-11-06T08:42:37.420Z,10.03
2018-11-06T08:45:04.740Z,11.07
2018-11-06T08:47:32.985Z,9.43
2018-11-06T08:50:00.549Z,9.90
2018-11-06T08:52:28.007Z,12.13
2018-11-06T08:54:55.579Z,10.27
2018-11-06T08:57:23.097Z,9.67
2018-11-06T08:59:50.567Z,10.07
2018-11-06T09:02:18.071Z,9.90
2018-11-06T09:04:45.567Z,10.20
2018-11-06T09:07:13.816Z,9.97
2018-11-06T09:09:41.275Z,9.83
2018-11-06T09:12:08.736Z,10.10
2018-11-06T09:14:36.293Z,8.87
2018-11-06T09:17:04.647Z,10.00
2018-11-06T09:19:32.019Z,9.97
2018-11-06T09:21:59.594Z,10.30
2018-11-06T09:24:27.064Z,10.00
2018-11-06T09:26:54.841Z,10.23
2018-11-06T09:29:22.390Z,9.67
2018-11-06T09:31:49.965Z,10.93
2018-11-06T09:34:18.207Z,10.10
2018-11-06T09:36:45.677Z,10.43
2018-11-06T09:39:14.051Z,11.00
2018-11-06T09:41:41.546Z,9.63
2018-11-06T09:44:09.107Z,10.67
2018-11-06T09:46:36.671Z,9.70
2018-11-06T09:49:04.245Z,10.73
2018-11-06T09:51:31.728Z,10.93
2018-11-06T09:53:59.983Z,9.47
2018-11-06T09:56:27.451Z,9.87
2018-11-06T09:58:54.928Z,9.67
2018-11-06T10:01:22.471Z,10.17
2018-11-06T10:03:49.944Z,8.90
2018-11-06T10:06:17.532Z,9.77
2018-11-06T10:08:45.646Z,9.80
2018-11-06T10:11:13.144Z,9.17
2018-11-06T10:13:40.709Z,10.00
2018-11-06T10:16:08.170Z,9.90
2018-11-06T10:18:35.636Z,9.40
2018-11-06T10:21:04.418Z,9.83
2018-11-06T10:23:31.859Z,9.00
2018-11-06T10:25:59.329Z,10.17
2018-11-06T10:28:26.800Z,9.43
2018-11-06T10:30:54.350Z,9.67
2018-11-06T10:33:21.825Z,9.63
2018-11-06T10:35:49.297Z,9.03
2018-11-06T10:38:16.830Z,9.30
2018-11-06T10:40:44.227Z,9.60
2018-11-06T10:43:11.698Z,9.37
2018-11-06T10:45:39.171Z,9.17
2018-11-06T10:48:07.426Z,8.57
2018-11-06T10:50:34.985Z,9.83
2018-11-06T10:53:02.567Z,8.73
2018-11-06T10:55:30.024Z,9.53
2018-11-06T10:57:57.587Z,9.07
2018-11-06T11:00:25.056Z,9.10
2018-11-06T11:02:53.291Z,8.90
2018-11-06T11:05:20.776Z,9.47
2018-11-06T11:07:48.343Z,8.80
2018-11-06T11:10:15.812Z,9.13
2018-11-06T11:12:43.283Z,9.20
2018-11-06T11:15:10.749Z,8.90
2018-11-06T11:17:38.298Z,9.33
2018-11-06T11:20:07.319Z,9.50
2018-11-06T11:22:34.730Z,9.03
2018-11-06T11:25:02.317Z,8.10
2018-11-06T11:27:29.794Z,8.57
2018-11-06T11:29:57.253Z,8.60
2018-11-06T11:32:24.715Z,8.30
2018-11-06T11:34:52.181Z,8.40
2018-11-06T11:37:19.728Z,8.43
2018-11-06T11:39:47.301Z,8.53
2018-11-06T11:42:14.764Z,9.20
2018-11-06T11:44:42.332Z,8.07
2018-11-06T11:47:09.886Z,9.67
2018-11-06T11:49:37.443Z,10.17
2018-11-06T11:52:04.915Z,9.33
2018-11-06T11:54:33.903Z,9.33
2018-11-06T11:57:01.375Z,9.27
2018-11-06T11:59:28.936Z,8.33
2018-11-06T12:01:57.213Z,9.17
2018-11-06T12:04:24.775Z,8.53
2018-11-06T12:06:52.350Z,8.57
2018-11-06T12:09:19.805Z,8.43
2018-11-06T12:11:47.273Z,8.40
2018-11-06T12:14:14.827Z,8.77
2018-11-06T12:16:42.300Z,9.23
2018-11-06T12:19:09.773Z,7.93
2018-11-06T12:21:37.333Z,8.00
2018-11-06T12:24:04.932Z,8.93
2018-11-06T12:26:32.363Z,7.57
2018-11-06T12:28:59.915Z,8.30
2018-11-06T12:31:27.390Z,8.63
2018-11-06T12:33:55.616Z,8.40
2018-11-06T12:36:23.115Z,8.07
2018-11-06T12:38:50.586Z,7.67
2018-11-06T12:41:18.140Z,7.67
2018-11-06T12:43:47.122Z,6.90
2018-11-06T12:46:14.603Z,7.00
2018-11-06T12:48:43.597Z,7.37
2018-11-06T12:51:11.359Z,8.20
2018-11-06T12:53:38.816Z,7.10
2018-11-06T12:56:06.393Z,6.43
2018-11-06T12:58:33.863Z,7.50
2018-11-06T13:01:01.335Z,7.17
2018-11-06T13:03:28.919Z,7.53
2018-11-06T13:05:56.367Z,7.03
2018-11-06T13:08:24.620Z,6.47
2018-11-06T13:10:52.079Z,7.03
2018-11-06T13:13:19.650Z,6.33
2018-11-06T13:15:47.299Z,6.33
2018-11-06T13:18:14.677Z,6.33
2018-11-06T13:20:42.965Z,5.90
2018-11-06T13:23:10.426Z,5.77
2018-11-06T13:25:38.052Z,6.43
2018-11-06T13:28:05.554Z,5.83
2018-11-06T13:30:33.071Z,6.53
2018-11-06T13:33:02.110Z,5.83
2018-11-06T13:35:29.570Z,5.60
2018-11-06T13:37:57.133Z,5.37
2018-11-06T13:40:24.606Z,6.03
2018-11-06T13:42:52.269Z,5.70
2018-11-06T13:45:19.726Z,5.77
2018-11-06T13:47:47.169Z,4.97
2018-11-06T13:50:14.632Z,6.27
2018-11-06T13:52:42.095Z,5.63
2018-11-06T13:55:09.572Z,5.53
2018-11-06T13:57:37.043Z,5.53
2018-11-06T14:00:04.511Z,5.20
2018-11-06T14:02:33.596Z,5.20
2018-11-06T14:05:01.162Z,5.07
2018-11-06T14:07:28.650Z,5.73
2018-11-06T14:09:56.925Z,5.07
2018-11-06T14:12:24.477Z,5.53
2018-11-06T14:14:51.944Z,4.83
2018-11-06T14:17:19.506Z,5.03
2018-11-06T14:19:47.064Z,5.00
2018-11-06T14:22:14.583Z,4.50
2018-11-06T14:24:42.082Z,5.00
2018-11-06T14:27:09.627Z,4.40
2018-11-06T14:29:37.033Z,4.93
2018-11-06T14:32:05.291Z,4.63
2018-11-06T14:34:32.758Z,5.03
2018-11-06T14:37:00.211Z,4.93
2018-11-06T14:39:27.702Z,5.10
2018-11-06T14:41:55.247Z,4.93
2018-11-06T14:44:22.720Z,4.80
2018-11-06T14:46:50.176Z,4.87
2018-11-06T14:49:17.693Z,4.33
2018-11-06T14:51:45.899Z,4.67
2018-11-06T14:54:13.359Z,4.70
2018-11-06T14:56:40.838Z,4.67
2018-11-06T14:59:08.309Z,5.53
2018-11-06T15:01:36.213Z,5.50
2018-11-06T15:04:04.736Z,5.57
2018-11-06T15:06:32.208Z,5.67
2018-11-06T15:08:59.685Z,5.27
2018-11-06T15:11:27.243Z,5.40
2018-11-06T15:13:54.715Z,5.17
2018-11-06T15:16:23.046Z,5.50
2018-11-06T15:18:50.549Z,6.77
2018-11-06T15:21:18.028Z,5.60
2018-11-06T15:23:45.578Z,6.57
2018-11-06T15:26:13.071Z,6.37
2018-11-06T15:28:41.359Z,6.37
2018-11-06T15:31:09.696Z,6.83
2018-11-06T15:33:37.273Z,7.07
2018-11-06T15:36:06.242Z,7.43
2018-11-06T15:38:34.002Z,6.17
2018-11-06T15:41:01.604Z,7.07
2018-11-06T15:43:29.348Z,7.17
2018-11-06T15:45:56.823Z,7.60
2018-11-06T15:48:24.308Z,8.00
2018-11-06T15:50:52.571Z,7.63
2018-11-06T15:53:20.032Z,8.57
2018-11-06T15:55:47.511Z,7.87
2018-11-06T15:58:15.057Z,7.70
2018-11-06T16:00:42.540Z,8.47
2018-11-06T16:03:10.094Z,8.87
2018-11-06T16:05:37.557Z,9.23
2018-11-06T16:08:05.149Z,8.07
2018-11-06T16:10:33.080Z,8.30
2018-11-06T16:13:00.548Z,8.87
2018-11-06T16:15:28.851Z,7.90
2018-11-06T16:17:56.266Z,9.10
2018-11-06T16:20:23.741Z,9.00
2018-11-06T16:22:51.209Z,8.93
2018-11-06T16:25:19.040Z,8.10
2018-11-06T16:27:46.503Z,9.23
2018-11-06T16:30:14.067Z,8.57
2018-11-06T16:32:41.610Z,8.43
2018-11-06T16:35:09.041Z,8.13
2018-11-06T16:37:36.508Z,8.50
2018-11-06T16:40:03.971Z,9.10
2018-11-06T16:42:31.431Z,7.87
2018-11-06T16:44:58.899Z,7.63
2018-11-06T16:47:26.451Z,8.03
2018-11-06T16:49:53.955Z,8.73
2018-11-06T16:52:21.436Z,7.43
2018-11-06T16:54:48.937Z,8.40
2018-11-06T16:57:16.560Z,7.80
2018-11-06T16:59:44.120Z,8.03
2018-11-06T17:02:11.535Z,7.60
2018-11-06T17:04:39.098Z,7.13
2018-11-06T17:07:06.559Z,8.17
2018-11-06T17:09:34.116Z,7.60
2018-11-06T17:12:01.568Z,8.83
2018-11-06T17:14:29.147Z,7.63
2018-11-06T17:16:56.615Z,7.07
2018-11-06T17:19:24.169Z,8.40
2018-11-06T17:21:51.631Z,6.77
2018-11-06T17:24:19.104Z,7.40
2018-11-06T17:26:46.669Z,7.63
2018-11-06T17:29:14.228Z,6.80
2018-11-06T17:31:41.693Z,8.07
2018-11-06T17:34:09.159Z,7.40
2018-11-06T17:36:36.626Z,7.57
2018-11-06T17:39:04.095Z,7.13
2018-11-06T17:41:32.324Z,8.07
2018-11-06T17:43:59.807Z,7.27
2018-11-06T17:46:27.372Z,7.83
2018-11-06T17:48:55.597Z,7.33
2018-11-06T17:51:23.848Z,7.83
2018-11-06T17:53:51.324Z,7.93
2018-11-06T17:56:19.552Z,6.60
2018-11-06T17:58:47.044Z,6.93
2018-11-06T18:01:14.519Z,8.60
2018-11-06T18:03:43.521Z,8.67
2018-11-06T18:06:10.964Z,7.20
2018-11-06T18:08:38.536Z,7.37
2018-11-06T18:11:05.991Z,8.27
2018-11-06T18:13:33.545Z,7.40
2018-11-06T18:16:01.125Z,8.03
2018-11-06T18:18:28.680Z,8.07
2018-11-06T18:20:56.131Z,8.00
2018-11-06T18:23:23.595Z,7.43
2018-11-06T18:25:51.306Z,8.40
2018-11-06T18:28:18.657Z,8.17
2018-11-06T18:30:47.820Z,7.87
2018-11-06T18:33:15.247Z,8.83
2018-11-06T18:35:42.753Z,7.60
2018-11-06T18:38:10.333Z,7.83
2018-11-06T18:40:37.891Z,8.80
2018-11-06T18:43:05.367Z,8.30
2018-11-06T18:45:32.834Z,9.23
2018-11-06T18:48:01.093Z,7.97
2018-11-06T18:50:28.657Z,8.67
2018-11-06T18:52:56.123Z,10.07
2018-11-06T18:55:23.605Z,8.70
2018-11-06T18:57:51.872Z,8.13
2018-11-06T19:00:20.859Z,8.20
2018-11-06T19:02:48.313Z,8.33
2018-11-06T19:05:15.771Z,8.83
2018-11-06T19:07:43.344Z,8.20
2018-11-06T19:10:10.804Z,8.73
2018-11-06T19:12:39.126Z,8.13
2018-11-06T19:15:07.375Z,8.97
2018-11-06T19:17:34.933Z,8.80
2018-11-06T19:20:02.405Z,9.23
2018-11-06T19:22:29.873Z,8.57
2018-11-06T19:24:57.423Z,9.03
2018-11-06T19:27:24.905Z,8.87
2018-11-06T19:29:52.451Z,8.90
2018-11-06T19:32:19.913Z,8.73
2018-11-06T19:34:47.375Z,8.83
2018-11-06T19:37:14.835Z,9.53
2018-11-06T19:39:42.305Z,8.90
2018-11-06T19:42:10.538Z,9.57
2018-11-06T19:44:38.759Z,9.10
2018-11-06T19:47:06.231Z,10.10
2018-11-06T19:49:33.781Z,9.00
2018-11-06T19:52:01.342Z,7.97
2018-11-06T19:54:28.811Z,9.47
2018-11-06T19:56:57.085Z,9.77
2018-11-06T19:59:24.581Z,8.53
2018-11-06T20:01:52.028Z,9.97
2018-11-06T20:04:19.573Z,8.57
2018-11-06T20:06:47.150Z,9.33
2018-11-06T20:09:15.416Z,10.33
2018-11-06T20:11:42.920Z,9.53
2018-11-06T20:14:10.359Z,9.60
2018-11-06T20:16:37.830Z,9.33
2018-11-06T20:19:06.069Z,8.80
2018-11-06T20:21:33.597Z,9.57
2018-11-06T20:24:01.076Z,10.17
2018-11-06T20:26:28.578Z,9.77
2018-11-06T20:28:56.243Z,9.20
2018-11-06T20:31:23.706Z,8.87
2018-11-06T20:33:51.978Z,9.47
2018-11-06T20:36:19.445Z,8.97
2018-11-06T20:38:46.917Z,9.20
2018-11-06T20:41:14.411Z,8.55
2018-11-06T20:43:42.648Z,9.77
2018-11-06T20:46:10.128Z,9.40
2018-11-06T20:48:37.875Z,8.47
2018-11-06T20:51:05.342Z,7.97
2018-11-06T20:53:32.864Z,9.17
2018-11-06T20:56:00.307Z,8.40
2018-11-06T20:58:28.535Z,8.83
2018-11-06T21:00:55.993Z,9.40
2018-11-06T21:03:23.461Z,8.33
2018-11-06T21:05:51.136Z,9.37
2018-11-06T21:08:18.551Z,9.47
2018-11-06T21:10:46.122Z,8.83
2018-11-06T21:13:14.419Z,8.40
2018-11-06T21:15:41.823Z,7.83
2018-11-06T21:18:10.122Z,8.57
2018-11-06T21:20:37.564Z,8.67
2018-11-06T21:23:05.799Z,7.73
2018-11-06T21:25:33.419Z,8.73
2018-11-06T21:28:00.754Z,8.60
2018-11-06T21:30:28.229Z,8.77
2018-11-06T21:32:55.775Z,8.77
2018-11-06T21:35:23.256Z,8.17
2018-11-06T21:37:50.807Z,8.10
2018-11-06T21:40:18.387Z,8.47
2018-11-06T21:42:45.835Z,8.33
2018-11-06T21:45:15.179Z,7.93
2018-11-06T21:47:42.607Z,7.80
2018-11-06T21:50:10.074Z,7.90
2018-11-06T21:52:37.539Z,8.67
2018-11-06T21:55:05.803Z,9.07
2018-11-06T21:57:33.264Z,8.43
2018-11-06T22:00:00.745Z,8.37
2018-11-06T22:02:28.296Z,7.60
2018-11-06T22:04:55.899Z,8.30
2018-11-06T22:07:24.104Z,7.83
2018-11-06T22:09:51.566Z,7.20
2018-11-06T22:12:19.080Z,7.00
2018-11-06T22:14:46.617Z,8.70
2018-11-06T22:17:14.096Z,7.20
2018-11-06T22:19:41.573Z,7.57
2018-11-06T22:22:09.804Z,7.67
2018-11-06T22:24:37.268Z,7.73
2018-11-06T22:27:04.739Z,7.10
2018-11-06T22:29:32.313Z,7.17
2018-11-06T22:31:59.843Z,7.73
2018-11-06T22:34:28.762Z,7.33
2018-11-06T22:36:56.279Z,7.27
2018-11-06T22:39:23.696Z,7.30
2018-11-06T22:41:52.687Z,7.20
2018-11-06T22:44:20.251Z,7.70
2018-11-06T22:46:47.734Z,7.07
2018-11-06T22:49:15.216Z,7.37
2018-11-06T22:51:43.445Z,7.33
2018-11-06T22:54:10.908Z,7.40
2018-11-06T22:56:38.691Z,7.20
2018-11-06T22:59:06.215Z,6.93
2018-11-06T23:01:33.675Z,7.43
2018-11-06T23:04:01.153Z,7.47
2018-11-06T23:06:28.698Z,8.33
2018-11-06T23:08:56.674Z,8.00
2018-11-06T23:11:24.168Z,7.03
2018-11-06T23:13:51.647Z,7.70
2018-11-06T23:16:19.213Z,7.13
2018-11-06T23:18:47.487Z,7.37
2018-11-06T23:21:14.960Z,7.33
2018-11-06T23:23:42.418Z,7.77
2018-11-06T23:26:09.978Z,7.17
2018-11-06T23:28:37.442Z,6.30
2018-11-06T23:31:05.003Z,7.83
2018-11-06T23:33:32.476Z,6.97
2018-11-06T23:36:01.465Z,6.50
2018-11-06T23:38:29.235Z,7.13
2018-11-06T23:40:56.701Z,7.40
2018-11-06T23:43:24.262Z,7.10
2018-11-06T23:45:51.728Z,7.40
2018-11-06T23:48:19.486Z,7.13
2018-11-06T23:50:47.052Z,6.90
2018-11-06T23:53:14.607Z,6.30
2018-11-06T23:55:42.179Z,7.47
2018-11-06T23:58:09.640Z,7.53
